Date,TemperatureHighF,TemperatureAvgF,TemperatureLowF,DewpointHighF,DewpointAvgF,DewpointLowF,HumidityHigh,HumidityAvg,HumidityLow,PressureMaxIn,PressureMinIn,WindSpeedMaxMPH,WindSpeedAvgMPH,GustSpeedMaxMPH,PrecipitationSumIn
2013-2-1,20,12,5,14,7,1,91,79,65,30.37,30.16,7,3,16,0.00
2013-2-2,29,22,14,27,18,-100,98,89,77,30.17,29.96,8,3,16,0.00
2013-2-3,26,20,12,23,18,9,99,88,73,30.05,29.92,8,1,20,0.00
2013-2-4,42,30,22,34,26,19,90,84,73,30.01,29.72,5,2,16,0.00
2013-2-5,38,31,24,37,29,23,99,92,84,30.04,29.78,8,2,15,0.00
2013-2-6,42,35,28,33,29,26,96,81,65,30.21,30.04,4,1,11,0.00
2013-2-7,58,41,30,46,36,28,100,85,56,30.09,29.76,9,2,19,0.00
2013-2-8,34,28,20,34,26,19,99,94,88,30.32,29.87,9,5,19,0.00
2013-2-9,44,33,20,33,28,19,96,80,60,30.34,30.05,3,1,9,0.00
2013-2-10,49,42,35,49,40,29,100,93,75,30.06,29.59,6,3,20,0.00
2013-2-11,43,33,26,42,27,23,97,79,67,30.04,29.61,11,6,27,0.00
2013-2-12,37,30,24,31,27,22,99,91,77,30.10,29.88,5,1,10,0.00
2013-2-13,48,35,23,36,31,23,100,85,57,29.88,29.70,6,1,13,0.00
2013-2-14,47,38,33,39,34,29,97,85,67,29.97,29.72,7,2,19,0.00
2013-2-15,34,31,25,32,26,19,98,81,56,30.15,29.95,8,3,19,0.00
2013-2-16,26,22,16,20,15,9,89,76,61,30.14,30.08,7,3,18,0.00
2013-2-17,36,22,7,22,14,4,95,71,51,30.20,29.99,4,0,9,0.00
2013-2-18,53,41,31,48,36,21,100,81,65,29.99,29.48,8,4,23,0.00
2013-2-19,32,24,18,31,19,12,97,82,73,30.14,29.64,9,6,25,0.00
2013-2-20,26,19,10,20,14,6,91,80,67,30.30,30.14,8,2,19,0.00
2013-2-21,30,25,15,30,22,14,100,90,78,30.29,29.83,9,3,25,0.00
2013-2-22,36,32,28,35,31,25,100,97,87,29.96,29.75,7,3,15,0.00
2013-2-23,29,27,22,25,24,21,97,88,78,29.96,29.91,6,2,15,0.00
2013-2-24,39,28,18,29,24,18,99,87,65,30.11,29.94,2,0,7,0.00
2013-2-25,45,35,25,33,29,24,98,82,60,30.09,29.75,9,3,19,0.00
2013-2-26,37,35,32,37,34,30,100,96,81,29.76,29.32,13,5,35,0.00
2013-2-27,34,33,32,34,33,32,100,99,98,29.69,29.45,7,4,17,0.00
2013-2-28,37,34,32,35,33,29,100,96,86,29.99,29.68,7,4,15,0.00